createdAt,value
2019-03-02T00:00:07.566Z,995.9
2019-03-02T00:01:09.780Z,996.0
2019-03-02T00:02:09.886Z,995.9
2019-03-02T00:03:10.556Z,995.9
2019-03-02T00:04:11.224Z,995.9
2019-03-02T00:05:11.895Z,995.9
2019-03-02T00:06:12.562Z,995.9
2019-03-02T00:07:13.252Z,995.9
2019-03-02T00:08:13.900Z,995.9
2019-03-02T00:09:14.577Z,995.9
2019-03-02T00:10:15.264Z,995.9
2019-03-02T00:11:17.856Z,995.9
2019-03-02T00:12:16.620Z,995.9
2019-03-02T00:13:17.289Z,995.9
2019-03-02T00:14:19.197Z,995.9
2019-03-02T00:15:19.619Z,995.9
2019-03-02T00:16:20.288Z,995.9
2019-03-02T00:17:20.959Z,995.9
2019-03-02T00:18:21.623Z,995.9
2019-03-02T00:19:22.292Z,995.9
2019-03-02T00:20:22.960Z,995.9
2019-03-02T00:21:23.630Z,996.0
2019-03-02T00:22:24.325Z,996.0
2019-03-02T00:23:24.973Z,995.9
2019-03-02T00:24:25.636Z,995.9
2019-03-02T00:25:26.305Z,995.9
2019-03-02T00:26:26.973Z,995.9
2019-03-02T00:27:27.641Z,995.9
2019-03-02T00:28:28.311Z,995.9
2019-03-02T00:29:28.980Z,995.9
2019-03-02T00:30:29.652Z,995.9
2019-03-02T00:31:33.259Z,995.9
2019-03-02T00:32:32.026Z,996.0
2019-03-02T00:33:32.693Z,995.9
2019-03-02T00:34:33.361Z,995.9
2019-03-02T00:35:34.031Z,995.9
2019-03-02T00:36:34.698Z,995.9
2019-03-02T00:37:35.367Z,995.9
2019-03-02T00:38:36.036Z,996.0
2019-03-02T00:39:36.706Z,995.9
2019-03-02T00:40:37.374Z,995.9
2019-03-02T00:41:38.682Z,995.9
2019-03-02T00:42:39.702Z,996.0
2019-03-02T00:43:40.371Z,996.0
2019-03-02T00:44:41.042Z,996.0
2019-03-02T00:45:41.709Z,996.0
2019-03-02T00:46:42.424Z,996.0
2019-03-02T00:47:43.093Z,996.0
2019-03-02T00:48:47.009Z,996.0
2019-03-02T00:49:45.421Z,996.0
2019-03-02T00:50:46.094Z,996.0
2019-03-02T00:51:47.396Z,996.0
2019-03-02T00:52:48.076Z,996.0
2019-03-02T00:53:48.792Z,995.9
2019-03-02T00:54:57.725Z,995.9
2019-03-02T00:55:51.123Z,995.9
2019-03-02T00:56:51.794Z,996.0
2019-03-02T00:57:53.676Z,996.0
2019-03-02T00:58:53.171Z,996.0
2019-03-02T00:59:53.839Z,995.9
2019-03-02T01:00:55.039Z,995.9
2019-03-02T01:01:55.218Z,995.9
2019-03-02T01:02:55.887Z,995.9
2019-03-02T01:03:56.554Z,995.9
2019-03-02T01:04:57.778Z,995.9
2019-03-02T01:05:58.883Z,995.9
2019-03-02T01:06:59.552Z,995.9
2019-03-02T01:08:01.003Z,995.9
2019-03-02T01:09:01.688Z,995.9
2019-03-02T01:10:02.407Z,995.8
2019-03-02T01:11:03.074Z,995.8
2019-03-02T01:12:05.787Z,995.8
2019-03-02T01:13:05.404Z,995.8
2019-03-02T01:14:06.074Z,995.8
2019-03-02T01:15:08.441Z,995.8
2019-03-02T01:16:08.402Z,995.7
2019-03-02T01:17:09.070Z,995.7
2019-03-02T01:18:09.739Z,995.7
2019-03-02T01:19:10.408Z,995.7
2019-03-02T01:20:11.077Z,995.7
2019-03-02T01:21:11.747Z,995.7
2019-03-02T01:22:13.597Z,995.7
2019-03-02T01:23:14.076Z,995.8
2019-03-02T01:24:14.792Z,995.7
2019-03-02T01:25:15.463Z,995.7
2019-03-02T01:26:16.129Z,995.7
2019-03-02T01:27:16.800Z,995.6
2019-03-02T01:28:17.469Z,995.7
2019-03-02T01:29:19.145Z,995.6
2019-03-02T01:30:19.847Z,995.6
2019-03-02T01:31:20.515Z,995.6
2019-03-02T01:32:21.184Z,995.6
2019-03-02T01:33:25.148Z,995.6
2019-03-02T01:34:23.514Z,995.5
2019-03-02T01:35:24.180Z,995.5
2019-03-02T01:36:24.848Z,995.5
2019-03-02T01:37:25.567Z,995.5
2019-03-02T01:38:26.235Z,995.5
2019-03-02T01:39:29.117Z,995.5
2019-03-02T01:40:28.567Z,995.5
2019-03-02T01:41:29.234Z,995.6
2019-03-02T01:42:30.813Z,995.5
2019-03-02T01:43:31.489Z,995.5
2019-03-02T01:44:32.159Z,995.5
2019-03-02T01:45:32.824Z,995.5
2019-03-02T01:46:33.492Z,995.6
2019-03-02T01:47:34.165Z,995.5
2019-03-02T01:48:34.834Z,995.5
2019-03-02T01:49:36.641Z,995.5
2019-03-02T01:50:37.161Z,995.5
2019-03-02T01:51:37.829Z,995.5
2019-03-02T01:52:38.499Z,995.5
2019-03-02T01:53:41.868Z,995.5
2019-03-02T01:54:40.828Z,995.5
2019-03-02T01:55:41.497Z,995.5
2019-03-02T01:56:42.644Z,995.5
2019-03-02T01:57:42.874Z,995.5
2019-03-02T01:58:43.543Z,995.5
2019-03-02T01:59:44.211Z,995.5
2019-03-02T02:00:45.799Z,995.5
2019-03-02T02:01:46.552Z,995.5
2019-03-02T02:02:47.210Z,995.5
2019-03-02T02:03:48.039Z,995.6
2019-03-02T02:04:48.692Z,995.5
2019-03-02T02:05:49.362Z,995.5
2019-03-02T02:06:50.036Z,995.6
2019-03-02T02:07:54.041Z,995.6
2019-03-02T02:08:52.357Z,995.6
2019-03-02T02:09:53.028Z,995.5
2019-03-02T02:10:53.694Z,995.5
2019-03-02T02:11:54.399Z,995.5
2019-03-02T02:12:55.073Z,995.5
2019-03-02T02:13:55.742Z,995.4
2019-03-02T02:14:56.412Z,995.5
2019-03-02T02:15:57.077Z,995.5
2019-03-02T02:16:57.796Z,995.5
2019-03-02T02:17:58.464Z,995.4
2019-03-02T02:18:59.290Z,995.5
2019-03-02T02:20:00.025Z,995.5
2019-03-02T02:21:00.737Z,995.4
2019-03-02T02:22:02.125Z,995.4
2019-03-02T02:23:02.889Z,995.4
2019-03-02T02:24:03.560Z,995.4
2019-03-02T02:25:04.226Z,995.4
2019-03-02T02:26:07.684Z,995.4
2019-03-02T02:27:06.556Z,995.3
2019-03-02T02:28:07.226Z,995.4
2019-03-02T02:29:09.309Z,995.3
2019-03-02T02:30:09.556Z,995.3
2019-03-02T02:31:10.229Z,995.3
2019-03-02T02:32:10.893Z,995.3
2019-03-02T02:33:11.563Z,995.3
2019-03-02T02:34:12.235Z,995.3
2019-03-02T02:35:12.909Z,995.3
2019-03-02T02:36:14.239Z,995.3
2019-03-02T02:37:15.285Z,995.4
2019-03-02T02:38:17.474Z,995.3
2019-03-02T02:39:17.610Z,995.4
2019-03-02T02:40:18.280Z,995.4
2019-03-02T02:41:23.162Z,995.4
2019-03-02T02:42:19.660Z,995.4
2019-03-02T02:43:21.262Z,995.4
2019-03-02T02:44:21.988Z,995.4
2019-03-02T02:45:22.681Z,995.4
2019-03-02T02:46:27.530Z,995.4
2019-03-02T02:47:25.057Z,995.3
2019-03-02T02:48:26.411Z,995.4
2019-03-02T02:49:27.412Z,995.4
2019-03-02T02:50:31.132Z,995.3
2019-03-02T02:51:29.697Z,995.3
2019-03-02T02:52:30.370Z,995.3
2019-03-02T02:53:31.035Z,995.3
2019-03-02T02:54:31.704Z,995.3
2019-03-02T02:55:36.162Z,995.3
2019-03-02T02:56:34.785Z,995.3
2019-03-02T02:57:38.315Z,995.3
2019-03-02T02:58:37.233Z,995.3
2019-03-02T02:59:38.517Z,995.4
2019-03-02T03:00:39.565Z,995.3
2019-03-02T03:01:40.315Z,995.4
2019-03-02T03:02:40.994Z,995.4
2019-03-02T03:03:41.662Z,995.3
2019-03-02T03:04:42.337Z,995.3
2019-03-02T03:05:43.051Z,995.4
2019-03-02T03:06:43.720Z,995.3
2019-03-02T03:07:52.302Z,995.3
2019-03-02T03:08:46.049Z,995.3
2019-03-02T03:09:49.544Z,995.3
2019-03-02T03:10:47.426Z,995.3
2019-03-02T03:11:48.097Z,995.3
2019-03-02T03:12:48.768Z,995.3
2019-03-02T03:13:49.558Z,995.3
2019-03-02T03:14:54.285Z,995.3
2019-03-02T03:15:51.859Z,995.3
2019-03-02T03:16:54.063Z,995.3
2019-03-02T03:17:54.187Z,995.3
2019-03-02T03:18:54.858Z,995.2
2019-03-02T03:19:55.524Z,995.3
2019-03-02T03:20:56.194Z,995.2
2019-03-02T03:21:56.861Z,995.3
2019-03-02T03:22:57.530Z,995.3
2019-03-02T03:24:02.828Z,995.2
2019-03-02T03:24:59.858Z,995.2
2019-03-02T03:26:00.536Z,995.2
2019-03-02T03:27:01.195Z,995.2
2019-03-02T03:28:01.864Z,995.2
2019-03-02T03:29:05.187Z,995.2
2019-03-02T03:30:04.194Z,995.1
2019-03-02T03:31:04.877Z,995.1
2019-03-02T03:32:09.277Z,995.1
2019-03-02T03:33:07.242Z,995.1
2019-03-02T03:34:07.945Z,995.1
2019-03-02T03:35:16.698Z,995.1
2019-03-02T03:36:10.275Z,995.1
2019-03-02T03:37:13.173Z,995.1
2019-03-02T03:38:12.606Z,995.2
2019-03-02T03:39:13.272Z,995.1
2019-03-02T03:40:13.940Z,995.1
2019-03-02T03:41:14.615Z,995.1
2019-03-02T03:42:22.475Z,995.1
2019-03-02T03:43:16.939Z,995.1
2019-03-02T03:44:25.845Z,995.1
2019-03-02T03:45:19.266Z,995.1
2019-03-02T03:46:22.509Z,995.1
2019-03-02T03:47:21.592Z,995.1
2019-03-02T03:48:22.263Z,995.1
2019-03-02T03:49:22.976Z,995.0
2019-03-02T03:50:23.643Z,995.0
2019-03-02T03:51:26.066Z,995.1
2019-03-02T03:52:25.973Z,995.1
2019-03-02T03:53:28.473Z,995.1
2019-03-02T03:54:28.301Z,995.1
2019-03-02T03:55:28.969Z,995.1
2019-03-02T03:56:29.637Z,995.1
2019-03-02T03:57:30.326Z,995.1
2019-03-02T03:58:35.200Z,995.0
2019-03-02T03:59:32.634Z,995.1
2019-03-02T04:00:34.405Z,995.1
2019-03-02T04:01:34.965Z,995.1
2019-03-02T04:02:36.962Z,995.1
2019-03-02T04:03:37.292Z,995.1
2019-03-02T04:04:37.961Z,995.1
2019-03-02T04:05:42.043Z,995.1
2019-03-02T04:06:40.293Z,995.1
2019-03-02T04:07:49.015Z,995.1
2019-03-02T04:08:42.665Z,995.1
2019-03-02T04:09:46.876Z,995.1
2019-03-02T04:10:44.993Z,995.0
2019-03-02T04:11:45.661Z,995.0
2019-03-02T04:12:46.330Z,995.0
2019-03-02T04:13:47.000Z,995.0
2019-03-02T04:14:47.687Z,995.0
2019-03-02T04:15:48.343Z,995.0
2019-03-02T04:16:49.003Z,995.0
2019-03-02T04:17:49.678Z,995.0
2019-03-02T04:18:55.291Z,995.0
2019-03-02T04:19:52.007Z,995.0
2019-03-02T04:20:52.718Z,995.0
2019-03-02T04:21:53.387Z,995.0
2019-03-02T04:22:54.057Z,995.0
2019-03-02T04:23:56.226Z,995.0
2019-03-02T04:24:56.383Z,995.0
2019-03-02T04:25:58.305Z,995.0
2019-03-02T04:26:58.711Z,995.0
2019-03-02T04:27:59.384Z,995.0
2019-03-02T04:29:00.052Z,995.0
2019-03-02T04:30:00.729Z,995.0
2019-03-02T04:31:04.752Z,995.0
2019-03-02T04:32:02.101Z,995.0
2019-03-02T04:33:05.986Z,995.0
2019-03-02T04:34:04.476Z,995.0
2019-03-02T04:35:05.144Z,995.0
2019-03-02T04:36:09.569Z,995.0
2019-03-02T04:37:07.472Z,995.0
2019-03-02T04:38:08.188Z,995.0
2019-03-02T04:39:09.656Z,995.0
2019-03-02T04:40:10.518Z,995.0
2019-03-02T04:41:11.186Z,995.0
2019-03-02T04:42:14.548Z,995.0
2019-03-02T04:43:13.514Z,995.0
2019-03-02T04:44:14.185Z,995.0
2019-03-02T04:45:14.852Z,995.0
2019-03-02T04:46:16.685Z,995.0
2019-03-02T04:47:17.181Z,995.0
2019-03-02T04:48:17.849Z,995.0
2019-03-02T04:49:18.518Z,995.0
2019-03-02T04:50:19.187Z,995.1
2019-03-02T04:51:19.856Z,995.1
2019-03-02T04:52:20.524Z,995.1
2019-03-02T04:53:21.487Z,995.0
2019-03-02T04:54:22.854Z,995.1
2019-03-02T04:55:23.524Z,995.1
2019-03-02T04:56:25.106Z,995.0
2019-03-02T04:57:25.771Z,995.1
2019-03-02T04:58:26.440Z,995.0
2019-03-02T04:59:27.108Z,995.0
2019-03-02T05:00:28.563Z,995.0
2019-03-02T05:01:29.437Z,995.0
2019-03-02T05:02:30.103Z,994.9
2019-03-02T05:03:30.771Z,994.9
2019-03-02T05:04:32.307Z,995.0
2019-03-02T05:05:33.100Z,995.0
2019-03-02T05:06:33.770Z,995.0
2019-03-02T05:07:34.437Z,995.0
2019-03-02T05:08:37.612Z,995.0
2019-03-02T05:09:36.767Z,995.0
2019-03-02T05:10:37.434Z,995.0
2019-03-02T05:11:39.464Z,995.0
2019-03-02T05:12:39.763Z,995.0
2019-03-02T05:13:40.430Z,994.9
2019-03-02T05:14:41.148Z,995.0
2019-03-02T05:15:41.816Z,995.0
2019-03-02T05:16:42.485Z,995.0
2019-03-02T05:17:44.069Z,995.0
2019-03-02T05:18:44.812Z,995.0
2019-03-02T05:19:45.480Z,995.0
2019-03-02T05:20:46.149Z,995.0
2019-03-02T05:21:46.817Z,995.0
2019-03-02T05:22:50.879Z,995.0
2019-03-02T05:23:49.195Z,994.9
2019-03-02T05:24:49.863Z,994.9
2019-03-02T05:25:51.679Z,994.9
2019-03-02T05:26:53.509Z,994.9
2019-03-02T05:27:53.852Z,994.9
2019-03-02T05:28:54.519Z,994.9
2019-03-02T05:29:55.604Z,994.9
2019-03-02T05:30:56.250Z,994.9
2019-03-02T05:31:56.919Z,994.9
2019-03-02T05:32:57.587Z,994.9
2019-03-02T05:34:00.799Z,994.9
2019-03-02T05:34:59.915Z,994.8
2019-03-02T05:36:00.582Z,994.9
2019-03-02T05:37:02.926Z,994.9
2019-03-02T05:38:02.912Z,994.8
2019-03-02T05:39:03.580Z,994.9
2019-03-02T05:40:04.250Z,994.8
2019-03-02T05:41:04.917Z,994.8
2019-03-02T05:42:05.586Z,994.9
2019-03-02T05:43:06.254Z,994.9
2019-03-02T05:44:06.923Z,994.9
2019-03-02T05:45:07.591Z,994.9
2019-03-02T05:46:08.310Z,994.9
2019-03-02T05:47:08.973Z,994.9
2019-03-02T05:48:09.641Z,994.9
2019-03-02T05:49:10.317Z,994.9
2019-03-02T05:50:11.028Z,994.9
2019-03-02T05:51:11.699Z,994.9
2019-03-02T05:52:14.576Z,995.0
2019-03-02T05:53:14.028Z,995.0
2019-03-02T05:54:14.696Z,994.9
2019-03-02T05:55:18.127Z,995.0
2019-03-02T05:56:17.026Z,995.0
2019-03-02T05:57:17.696Z,995.0
2019-03-02T05:58:18.365Z,995.0
2019-03-02T05:59:19.033Z,995.0
2019-03-02T06:00:19.705Z,995.0
2019-03-02T06:01:20.373Z,995.0
2019-03-02T06:02:21.045Z,995.0
2019-03-02T06:03:21.713Z,995.0
2019-03-02T06:04:23.039Z,995.0
2019-03-02T06:05:23.796Z,995.0
2019-03-02T06:06:24.466Z,995.1
2019-03-02T06:07:25.137Z,995.1
2019-03-02T06:08:25.807Z,995.1
2019-03-02T06:09:26.477Z,995.1
2019-03-02T06:10:27.153Z,995.1
2019-03-02T06:11:27.867Z,995.1
2019-03-02T06:12:28.535Z,995.1
2019-03-02T06:13:29.754Z,995.1
2019-03-02T06:14:31.694Z,995.1
2019-03-02T06:15:32.133Z,995.1
2019-03-02T06:16:32.804Z,995.2
2019-03-02T06:17:33.878Z,995.1
2019-03-02T06:18:34.185Z,995.2
2019-03-02T06:19:34.854Z,995.2
2019-03-02T06:20:36.656Z,995.2
2019-03-02T06:21:36.285Z,995.3
2019-03-02T06:22:36.954Z,995.2
2019-03-02T06:23:37.625Z,995.3
2019-03-02T06:24:41.083Z,995.2
2019-03-02T06:25:39.957Z,995.2
2019-03-02T06:26:40.630Z,995.2
2019-03-02T06:27:43.075Z,995.2
2019-03-02T06:28:42.961Z,995.1
2019-03-02T06:29:43.652Z,995.1
2019-03-02T06:30:44.979Z,995.1
2019-03-02T06:31:45.663Z,995.1
2019-03-02T06:32:46.333Z,995.1
2019-03-02T06:33:47.004Z,995.1
2019-03-02T06:34:47.674Z,995.1
2019-03-02T06:35:48.347Z,995.1
2019-03-02T06:36:49.017Z,995.1
2019-03-02T06:37:52.953Z,995.1
2019-03-02T06:38:51.351Z,995.1
2019-03-02T06:39:52.023Z,995.1
2019-03-02T06:40:54.864Z,995.1
2019-03-02T06:41:54.356Z,995.1
2019-03-02T06:42:55.030Z,995.1
2019-03-02T06:43:58.390Z,995.1
2019-03-02T06:44:57.364Z,995.1
2019-03-02T06:45:58.085Z,995.1
2019-03-02T06:46:59.196Z,995.0
2019-03-02T06:47:59.469Z,995.0
2019-03-02T06:49:00.141Z,995.0
2019-03-02T06:50:00.814Z,995.0
2019-03-02T06:51:02.410Z,995.0
2019-03-02T06:52:02.247Z,995.0
2019-03-02T06:53:02.922Z,995.0
2019-03-02T06:54:03.591Z,995.0
2019-03-02T06:55:04.262Z,995.0
2019-03-02T06:56:04.937Z,995.0
2019-03-02T06:57:05.607Z,995.0
2019-03-02T06:58:06.278Z,995.0
2019-03-02T06:59:06.952Z,995.0
2019-03-02T07:00:10.626Z,995.0
2019-03-02T07:01:09.287Z,995.1
2019-03-02T07:02:09.958Z,995.0
2019-03-02T07:03:11.137Z,995.0
2019-03-02T07:04:11.342Z,995.0
2019-03-02T07:05:12.018Z,995.0
2019-03-02T07:06:12.860Z,995.0
2019-03-02T07:07:13.492Z,994.9
2019-03-02T07:08:14.170Z,995.0
2019-03-02T07:09:14.884Z,994.9
2019-03-02T07:10:17.823Z,994.9
2019-03-02T07:11:17.220Z,994.9
2019-03-02T07:12:17.892Z,994.9
2019-03-02T07:13:21.224Z,995.0
2019-03-02T07:14:20.226Z,995.0
2019-03-02T07:15:20.899Z,995.0
2019-03-02T07:16:21.570Z,994.9
2019-03-02T07:17:22.241Z,994.9
2019-03-02T07:18:22.920Z,994.9
2019-03-02T07:19:23.592Z,995.0
2019-03-02T07:20:27.411Z,994.9
2019-03-02T07:21:25.926Z,994.9
2019-03-02T07:22:26.598Z,995.0
2019-03-02T07:23:27.696Z,995.0
2019-03-02T07:24:29.513Z,994.9
2019-03-02T07:25:30.598Z,994.9
2019-03-02T07:26:31.314Z,995.0
2019-03-02T07:27:31.984Z,995.0
2019-03-02T07:28:32.657Z,995.0
2019-03-02T07:29:33.328Z,994.9
2019-03-02T07:30:34.000Z,995.0
2019-03-02T07:31:34.671Z,995.0
2019-03-02T07:32:35.345Z,995.0
2019-03-02T07:33:36.068Z,995.0
2019-03-02T07:34:36.740Z,995.0
2019-03-02T07:35:37.461Z,994.9
2019-03-02T07:36:38.130Z,994.9
2019-03-02T07:37:40.568Z,994.9
2019-03-02T07:38:40.467Z,994.9
2019-03-02T07:39:41.139Z,994.8
2019-03-02T07:40:45.556Z,994.9
2019-03-02T07:41:42.524Z,994.8
2019-03-02T07:42:43.200Z,994.9
2019-03-02T07:43:46.440Z,994.9
2019-03-02T07:44:45.532Z,994.9
2019-03-02T07:45:46.209Z,994.9
2019-03-02T07:46:47.915Z,994.9
2019-03-02T07:47:48.539Z,994.9
2019-03-02T07:48:49.212Z,994.9
2019-03-02T07:49:50.666Z,994.9
2019-03-02T07:50:51.324Z,994.9
2019-03-02T07:51:52.040Z,995.0
2019-03-02T07:52:53.221Z,995.0
2019-03-02T07:53:54.374Z,995.0
2019-03-02T07:54:58.338Z,995.0
2019-03-02T07:55:57.369Z,995.0
2019-03-02T07:56:58.375Z,994.9
2019-03-02T07:57:59.048Z,994.9
2019-03-02T07:58:59.722Z,995.0
2019-03-02T08:00:02.255Z,994.9
2019-03-02T08:01:02.060Z,995.0
2019-03-02T08:02:02.777Z,994.9
2019-03-02T08:03:03.455Z,995.0
2019-03-02T08:04:04.127Z,994.9
2019-03-02T08:05:04.796Z,994.9
2019-03-02T08:06:05.471Z,994.9
2019-03-02T08:07:06.144Z,994.9
2019-03-02T08:08:07.111Z,995.0
2019-03-02T08:09:07.805Z,995.0
2019-03-02T08:10:08.476Z,995.0
2019-03-02T08:11:10.642Z,995.0
2019-03-02T08:12:10.817Z,994.9
2019-03-02T08:13:11.491Z,994.9
2019-03-02T08:14:12.400Z,994.9
2019-03-02T08:15:13.614Z,994.9
2019-03-02T08:16:14.286Z,994.8
2019-03-02T08:17:14.964Z,994.8
2019-03-02T08:18:15.634Z,994.9
2019-03-02T08:19:16.308Z,994.9
2019-03-02T08:20:17.032Z,995.0
2019-03-02T08:21:17.747Z,995.0
2019-03-02T08:22:18.460Z,994.9
2019-03-02T08:23:19.141Z,995.0
2019-03-02T08:24:19.815Z,994.9
2019-03-02T08:25:20.486Z,995.0
2019-03-02T08:26:22.583Z,994.9
2019-03-02T08:27:22.821Z,994.9
2019-03-02T08:28:23.540Z,994.9
2019-03-02T08:29:24.213Z,994.9
2019-03-02T08:30:24.884Z,994.9
2019-03-02T08:31:25.557Z,994.8
2019-03-02T08:32:26.371Z,994.8
2019-03-02T08:33:27.011Z,994.8
2019-03-02T08:34:27.682Z,994.8
2019-03-02T08:35:28.365Z,994.8
2019-03-02T08:36:29.075Z,994.8
2019-03-02T08:37:30.784Z,994.8
2019-03-02T08:38:31.411Z,994.8
2019-03-02T08:39:32.084Z,994.9
2019-03-02T08:40:32.756Z,994.8
2019-03-02T08:41:36.649Z,994.8
2019-03-02T08:42:35.093Z,994.9
2019-03-02T08:43:37.791Z,994.9
2019-03-02T08:44:37.431Z,994.8
2019-03-02T08:45:38.103Z,994.8
2019-03-02T08:46:38.777Z,994.8
2019-03-02T08:47:39.452Z,994.8
2019-03-02T08:48:40.121Z,994.9
2019-03-02T08:49:41.794Z,994.8
2019-03-02T08:50:41.559Z,994.8
2019-03-02T08:51:42.232Z,994.8
2019-03-02T08:52:42.906Z,994.9
2019-03-02T08:53:43.579Z,994.9
2019-03-02T08:54:44.251Z,994.9
2019-03-02T08:55:44.926Z,994.8
2019-03-02T08:56:47.643Z,994.8
2019-03-02T08:57:47.297Z,994.8
2019-03-02T08:58:47.985Z,994.8
2019-03-02T08:59:48.658Z,994.8
2019-03-02T09:00:51.489Z,994.8
2019-03-02T09:01:51.398Z,994.8
2019-03-02T09:02:55.019Z,994.8
2019-03-02T09:03:54.329Z,994.9
2019-03-02T09:04:55.005Z,994.8
2019-03-02T09:05:55.691Z,994.9
2019-03-02T09:06:56.352Z,994.9
2019-03-02T09:07:57.031Z,994.9
2019-03-02T09:08:57.707Z,994.9
2019-03-02T09:09:58.423Z,994.9
2019-03-02T09:10:59.097Z,994.9
2019-03-02T09:11:59.771Z,994.8
2019-03-02T09:13:00.445Z,994.9
2019-03-02T09:14:01.120Z,994.9
2019-03-02T09:15:01.807Z,994.8
2019-03-02T09:16:05.431Z,994.9
2019-03-02T09:17:04.136Z,994.9
2019-03-02T09:18:50.459Z,994.9
2019-03-02T09:19:51.134Z,994.8
2019-03-02T09:20:51.808Z,994.9
2019-03-02T09:21:52.528Z,994.9
2019-03-02T09:22:56.473Z,994.9
2019-03-02T09:23:54.870Z,994.9
2019-03-02T09:24:55.545Z,994.8
2019-03-02T09:25:56.217Z,994.8
2019-03-02T09:26:56.892Z,994.9
2019-03-02T09:27:57.619Z,994.8
2019-03-02T09:28:58.336Z,994.9
2019-03-02T09:30:00.122Z,994.8
2019-03-02T09:31:02.106Z,994.8
2019-03-02T09:32:02.344Z,994.8
2019-03-02T09:33:03.028Z,994.8
2019-03-02T09:34:04.131Z,994.8
2019-03-02T09:35:04.411Z,994.8
2019-03-02T09:36:05.086Z,994.8
2019-03-02T09:37:07.034Z,994.8
2019-03-02T09:38:07.430Z,994.8
2019-03-02T09:39:08.105Z,994.8
2019-03-02T09:40:10.183Z,994.8
2019-03-02T09:41:11.710Z,994.8
2019-03-02T09:42:12.108Z,994.8
2019-03-02T09:43:12.976Z,994.8
2019-03-02T09:44:14.451Z,994.8
2019-03-02T09:45:15.124Z,994.8
2019-03-02T09:46:15.838Z,994.8
2019-03-02T09:47:16.520Z,994.9
2019-03-02T09:48:17.196Z,994.9
2019-03-02T09:49:17.872Z,994.9
2019-03-02T09:50:18.549Z,994.9
2019-03-02T09:51:19.268Z,994.9
2019-03-02T09:52:19.997Z,994.9
2019-03-02T09:53:20.668Z,994.9
2019-03-02T09:54:21.341Z,994.9
2019-03-02T09:55:22.019Z,994.9
2019-03-02T09:56:22.694Z,994.9
2019-03-02T09:57:23.365Z,994.9
2019-03-02T09:58:25.565Z,994.9
2019-03-02T09:59:25.708Z,994.9
2019-03-02T10:00:26.389Z,994.8
2019-03-02T10:01:27.057Z,994.9
2019-03-02T10:02:27.731Z,994.9
2019-03-02T10:03:29.922Z,994.9
2019-03-02T10:04:30.074Z,994.9
2019-03-02T10:05:30.750Z,994.9
2019-03-02T10:06:31.424Z,994.9
2019-03-02T10:07:34.586Z,994.9
2019-03-02T10:08:33.764Z,994.9
2019-03-02T10:09:34.438Z,994.9
2019-03-02T10:10:35.113Z,994.9
2019-03-02T10:11:35.789Z,994.9
2019-03-02T10:12:38.404Z,994.9
2019-03-02T10:13:38.129Z,994.8
2019-03-02T10:14:38.803Z,994.9
2019-03-02T10:15:39.475Z,994.8
2019-03-02T10:16:40.154Z,994.8
2019-03-02T10:17:40.825Z,994.9
2019-03-02T10:18:41.496Z,994.8
2019-03-02T10:19:42.216Z,994.8
2019-03-02T10:20:43.598Z,994.8
2019-03-02T10:21:47.488Z,994.8
2019-03-02T10:22:45.994Z,994.7
2019-03-02T10:23:46.748Z,994.8
2019-03-02T10:24:49.758Z,994.8
2019-03-02T10:25:49.106Z,994.8
2019-03-02T10:26:49.782Z,994.8
2019-03-02T10:27:53.924Z,994.8
2019-03-02T10:28:52.123Z,994.8
2019-03-02T10:29:52.798Z,994.8
2019-03-02T10:30:53.473Z,994.8
2019-03-02T10:31:54.150Z,994.8
2019-03-02T10:32:55.782Z,994.8
2019-03-02T10:33:55.538Z,994.8
2019-03-02T10:34:56.211Z,994.8
2019-03-02T10:35:56.887Z,994.8
2019-03-02T10:36:57.560Z,994.8
2019-03-02T10:37:58.234Z,994.8
2019-03-02T10:38:58.921Z,994.8
2019-03-02T10:39:59.633Z,994.8
2019-03-02T10:41:00.308Z,994.8
2019-03-02T10:42:00.985Z,994.8
2019-03-02T10:43:01.659Z,994.8
2019-03-02T10:44:02.331Z,994.8
2019-03-02T10:45:03.054Z,994.8
2019-03-02T10:46:03.728Z,994.8
2019-03-02T10:47:04.403Z,994.7
2019-03-02T10:48:05.077Z,994.8
2019-03-02T10:49:06.866Z,994.7
2019-03-02T10:50:07.416Z,994.7
2019-03-02T10:51:08.095Z,994.7
2019-03-02T10:52:09.607Z,994.6
2019-03-02T10:53:09.530Z,994.6
2019-03-02T10:54:10.203Z,994.7
2019-03-02T10:55:12.161Z,994.7
2019-03-02T10:56:12.544Z,994.6
2019-03-02T10:57:13.219Z,994.6
2019-03-02T10:58:13.895Z,994.7
2019-03-02T10:59:15.611Z,994.7
2019-03-02T11:00:16.282Z,994.6
2019-03-02T11:01:16.957Z,994.7
2019-03-02T11:02:20.071Z,994.7
2019-03-02T11:03:19.299Z,994.7
2019-03-02T11:04:19.973Z,994.7
2019-03-02T11:05:21.120Z,994.7
2019-03-02T11:06:21.787Z,994.6
2019-03-02T11:07:22.509Z,994.6
2019-03-02T11:08:25.338Z,994.6
2019-03-02T11:09:24.850Z,994.5
2019-03-02T11:10:26.216Z,994.5
2019-03-02T11:11:29.792Z,994.5
2019-03-02T11:12:28.567Z,994.5
2019-03-02T11:13:29.243Z,994.5
2019-03-02T11:14:31.038Z,994.5
2019-03-02T11:15:31.586Z,994.5
2019-03-02T11:16:32.260Z,994.5
2019-03-02T11:17:32.936Z,994.5
2019-03-02T11:18:34.656Z,994.5
2019-03-02T11:19:35.279Z,994.4
2019-03-02T11:20:35.953Z,994.5
2019-03-02T11:21:36.628Z,994.5
2019-03-02T11:22:38.805Z,994.5
2019-03-02T11:23:38.970Z,994.4
2019-03-02T11:24:39.645Z,994.5
2019-03-02T11:25:40.321Z,994.5
2019-03-02T11:26:40.998Z,994.4
2019-03-02T11:27:41.675Z,994.4
2019-03-02T11:28:42.350Z,994.4
2019-03-02T11:29:50.756Z,994.4
2019-03-02T11:30:44.696Z,994.4
2019-03-02T11:31:45.893Z,994.4
2019-03-02T11:32:46.544Z,994.4
2019-03-02T11:33:47.221Z,994.4
2019-03-02T11:34:47.897Z,994.4
2019-03-02T11:35:48.575Z,994.4
2019-03-02T11:36:49.537Z,994.4
2019-03-02T11:37:50.923Z,994.4
2019-03-02T11:38:51.600Z,994.3
2019-03-02T11:39:53.274Z,994.3
2019-03-02T11:40:53.946Z,994.3
2019-03-02T11:41:54.672Z,994.3
2019-03-02T11:42:55.352Z,994.3
2019-03-02T11:43:56.026Z,994.3
2019-03-02T11:44:56.702Z,994.3
2019-03-02T11:45:57.379Z,994.3
2019-03-02T11:46:58.055Z,994.3
2019-03-02T11:47:58.731Z,994.2
2019-03-02T11:48:59.409Z,994.3
2019-03-02T11:50:00.192Z,994.3
2019-03-02T11:51:01.030Z,994.2
2019-03-02T11:52:02.071Z,994.2
2019-03-02T11:53:02.424Z,994.2
2019-03-02T11:54:03.097Z,994.2
2019-03-02T11:55:04.249Z,994.2
2019-03-02T11:56:06.662Z,994.2
2019-03-02T11:57:07.937Z,994.2
2019-03-02T11:58:08.725Z,994.2
2019-03-02T11:59:10.509Z,994.2
2019-03-02T12:00:11.071Z,994.2
2019-03-02T12:01:11.747Z,994.1
2019-03-02T12:02:15.594Z,994.2
2019-03-02T12:03:14.092Z,994.1
2019-03-02T12:04:15.273Z,994.1
2019-03-02T12:05:16.433Z,994.1
2019-03-02T12:06:17.109Z,994.1
2019-03-02T12:07:17.831Z,994.2
2019-03-02T12:08:21.916Z,994.1
2019-03-02T12:09:20.176Z,994.1
2019-03-02T12:10:20.852Z,994.1
2019-03-02T12:11:21.526Z,994.1
2019-03-02T12:12:22.201Z,994.1
2019-03-02T12:13:22.878Z,994.0
2019-03-02T12:14:23.553Z,994.0
2019-03-02T12:15:25.014Z,994.1
2019-03-02T12:16:26.392Z,994.1
2019-03-02T12:17:27.420Z,994.1
2019-03-02T12:18:28.095Z,994.1
2019-03-02T12:19:29.563Z,994.1
2019-03-02T12:20:30.438Z,994.0
2019-03-02T12:21:31.114Z,994.0
2019-03-02T12:22:34.496Z,994.0
2019-03-02T12:23:34.157Z,994.0
2019-03-02T12:24:35.125Z,994.0
2019-03-02T12:25:36.531Z,993.9
2019-03-02T12:26:37.220Z,994.0
2019-03-02T12:27:37.897Z,993.9
2019-03-02T12:28:40.156Z,993.9
2019-03-02T12:29:41.367Z,994.0
2019-03-02T12:30:40.954Z,993.9
2019-03-02T12:31:41.630Z,993.9
2019-03-02T12:32:44.307Z,993.9
2019-03-02T12:33:43.970Z,993.8
2019-03-02T12:34:44.646Z,993.9
2019-03-02T12:35:45.323Z,993.9
2019-03-02T12:36:49.242Z,994.0
2019-03-02T12:37:47.666Z,993.9
2019-03-02T12:38:49.118Z,993.9
2019-03-02T12:39:49.830Z,993.9
2019-03-02T12:40:50.509Z,993.8
2019-03-02T12:41:52.650Z,993.8
2019-03-02T12:42:52.902Z,993.8
2019-03-02T12:43:53.628Z,993.8
2019-03-02T12:44:57.771Z,993.8
2019-03-02T12:45:55.021Z,993.8
2019-03-02T12:46:59.346Z,993.8
2019-03-02T12:47:57.362Z,993.7
2019-03-02T12:48:58.037Z,993.8
2019-03-02T12:49:58.713Z,993.7
2019-03-02T12:51:02.733Z,993.7
2019-03-02T12:52:01.112Z,993.7
2019-03-02T12:53:01.780Z,993.6
2019-03-02T12:54:04.823Z,993.6
2019-03-02T12:55:04.122Z,993.6
2019-03-02T12:56:04.799Z,993.6
2019-03-02T12:57:08.578Z,993.5
2019-03-02T12:58:07.142Z,993.5
2019-03-02T12:59:07.818Z,993.5
2019-03-02T13:00:08.803Z,993.4
2019-03-02T13:01:09.434Z,993.5
2019-03-02T13:02:13.957Z,993.4
2019-03-02T13:03:11.780Z,993.5
2019-03-02T13:04:12.472Z,993.3